createdAt,value
2023-03-24T00:02:37.577Z,15.33
2023-03-24T00:07:41.085Z,15.28
2023-03-24T00:12:42.895Z,15.22
2023-03-24T00:17:46.872Z,15.16
2023-03-24T00:22:56.535Z,15.13
2023-03-24T00:27:58.233Z,15.13
2023-03-24T00:33:02.084Z,15.08
2023-03-24T00:38:03.919Z,15.06
2023-03-24T00:43:05.719Z,15.05
2023-03-24T00:48:07.511Z,15.02
2023-03-24T00:53:10.087Z,14.99
2023-03-24T00:58:18.027Z,14.99
2023-03-24T01:03:27.234Z,14.98
2023-03-24T01:08:29.464Z,15.00
2023-03-24T01:13:32.173Z,15.01
2023-03-24T01:18:34.945Z,15.00
2023-03-24T01:23:37.579Z,15.01
2023-03-24T01:28:43.689Z,15.02
2023-03-24T01:33:45.783Z,15.05
2023-03-24T01:38:47.442Z,15.08
2023-03-24T01:43:49.183Z,15.18
2023-03-24T01:48:55.407Z,15.21
2023-03-24T01:54:09.532Z,15.24
2023-03-24T01:59:18.236Z,15.02
2023-03-24T02:04:48.468Z,14.99
2023-03-24T02:09:50.629Z,15.02
2023-03-24T02:14:53.448Z,14.95
2023-03-24T02:19:55.133Z,14.81
2023-03-24T02:25:29.708Z,14.66
2023-03-24T02:30:40.278Z,14.52
2023-03-24T02:36:23.493Z,14.45
2023-03-24T02:41:40.793Z,14.37
2023-03-24T02:46:49.290Z,14.26
2023-03-24T02:52:00.545Z,14.20
2023-03-24T02:57:12.946Z,14.15
2023-03-24T03:02:43.524Z,14.13
2023-03-24T03:07:47.755Z,14.04
2023-03-24T03:12:54.178Z,13.98
2023-03-24T03:18:09.124Z,13.97
2023-03-24T03:23:14.736Z,13.97
2023-03-24T03:28:21.995Z,13.99
2023-03-24T03:33:32.101Z,13.97
2023-03-24T03:38:49.319Z,13.97
2023-03-24T03:43:52.365Z,13.98
2023-03-24T03:48:54.369Z,14.00
2023-03-24T03:54:02.443Z,13.98
2023-03-24T03:59:07.023Z,14.00
2023-03-24T04:04:26.248Z,14.03
2023-03-24T04:10:10.225Z,14.06
2023-03-24T04:15:35.659Z,14.10
2023-03-24T04:21:07.592Z,14.14
2023-03-24T04:26:28.086Z,14.16
2023-03-24T04:32:02.273Z,14.22
2023-03-24T04:37:12.409Z,14.27
2023-03-24T04:42:55.062Z,14.33
2023-03-24T04:48:05.273Z,14.35
2023-03-24T04:53:30.843Z,14.39
2023-03-24T04:58:33.021Z,14.42
2023-03-24T05:03:38.074Z,14.42
2023-03-24T05:08:41.286Z,14.39
2023-03-24T05:13:44.367Z,14.41
2023-03-24T05:18:46.551Z,14.42
2023-03-24T05:23:48.723Z,14.43
2023-03-24T05:28:50.785Z,14.26
2023-03-24T05:33:53.150Z,14.05
2023-03-24T05:38:56.882Z,14.04
2023-03-24T05:44:05.781Z,13.96
2023-03-24T05:49:07.544Z,13.89
2023-03-24T05:54:14.327Z,13.84
2023-03-24T05:59:22.703Z,13.78
2023-03-24T06:04:24.656Z,13.67
2023-03-24T06:09:40.848Z,13.58
2023-03-24T06:14:45.525Z,13.68
2023-03-24T06:19:50.105Z,13.62
2023-03-24T06:25:05.658Z,13.52
2023-03-24T06:30:08.652Z,13.42
2023-03-24T06:35:10.753Z,13.43
2023-03-24T06:40:23.816Z,13.43
2023-03-24T06:45:31.340Z,13.41
2023-03-24T06:50:35.444Z,13.38
2023-03-24T06:55:42.535Z,13.48
2023-03-24T07:00:47.211Z,13.50
2023-03-24T07:06:09.706Z,13.46
2023-03-24T07:11:12.349Z,13.50
2023-03-24T07:16:21.869Z,13.67
2023-03-24T07:21:31.367Z,13.85
2023-03-24T07:26:33.569Z,14.06
2023-03-24T07:31:43.439Z,14.30
2023-03-24T07:36:48.056Z,14.48
2023-03-24T07:41:51.936Z,14.59
2023-03-24T07:47:03.922Z,14.67
2023-03-24T07:52:06.581Z,14.71
2023-03-24T07:57:12.692Z,14.70
2023-03-24T08:02:19.754Z,14.65
2023-03-24T08:07:35.176Z,14.68
2023-03-24T08:12:37.172Z,14.74
2023-03-24T08:17:39.528Z,14.80
2023-03-24T08:22:43.361Z,14.87
2023-03-24T08:27:47.072Z,14.90
2023-03-24T08:32:54.956Z,14.94
2023-03-24T08:37:59.308Z,14.99
2023-03-24T08:43:03.788Z,15.05
2023-03-24T08:48:07.750Z,15.07
2023-03-24T08:53:11.660Z,15.08
2023-03-24T08:58:16.284Z,15.08
2023-03-24T09:03:22.124Z,15.17
2023-03-24T09:08:25.002Z,15.17
2023-03-24T09:13:26.705Z,15.18
2023-03-24T09:18:29.305Z,15.12
2023-03-24T09:23:31.661Z,15.17
2023-03-24T09:28:34.218Z,15.16
2023-03-24T09:33:36.290Z,15.13
2023-03-24T09:38:38.110Z,15.09
2023-03-24T09:43:44.725Z,15.07
2023-03-24T09:48:53.256Z,14.99
2023-03-24T09:53:59.213Z,14.86
2023-03-24T09:59:15.359Z,14.68
2023-03-24T10:04:20.977Z,14.59
2023-03-24T10:09:30.476Z,14.50
2023-03-24T10:14:45.083Z,14.39
2023-03-24T10:20:00.685Z,14.28
2023-03-24T10:25:37.489Z,14.22
2023-03-24T10:30:44.099Z,14.22
2023-03-24T10:36:09.865Z,14.27
2023-03-24T10:41:26.091Z,14.30
2023-03-24T10:46:31.380Z,14.29
2023-03-24T10:51:36.657Z,14.30
2023-03-24T10:56:41.464Z,14.26
2023-03-24T11:01:43.797Z,14.30
2023-03-24T11:07:02.710Z,14.34
2023-03-24T11:12:04.772Z,14.42
2023-03-24T11:17:15.492Z,14.54
2023-03-24T11:22:17.419Z,14.62
2023-03-24T11:27:19.983Z,14.75
2023-03-24T11:32:25.213Z,14.92
2023-03-24T11:37:36.362Z,15.17
2023-03-24T11:42:44.773Z,15.40
2023-03-24T11:47:48.201Z,15.60
2023-03-24T11:52:58.132Z,15.80
2023-03-24T11:58:29.015Z,16.16
2023-03-24T12:03:39.826Z,16.55
2023-03-24T12:09:10.781Z,16.59
2023-03-24T12:14:23.317Z,16.61
2023-03-24T12:19:47.381Z,16.72
2023-03-24T12:25:16.708Z,16.80
2023-03-24T12:30:21.849Z,16.87
2023-03-24T12:35:34.060Z,16.88
2023-03-24T12:40:49.320Z,16.79
2023-03-24T12:45:54.234Z,16.77
2023-03-24T12:51:09.764Z,16.61
2023-03-24T12:56:31.231Z,16.64
2023-03-24T13:01:38.911Z,16.75
2023-03-24T13:06:53.198Z,16.85
2023-03-24T13:12:18.646Z,17.05
2023-03-24T13:17:31.791Z,17.05
2023-03-24T13:22:36.488Z,16.89
2023-03-24T13:27:41.250Z,16.81
2023-03-24T13:32:49.134Z,16.89
2023-03-24T13:37:57.356Z,16.89
2023-03-24T13:43:13.485Z,16.86
2023-03-24T13:48:23.517Z,16.82
2023-03-24T13:53:45.764Z,16.80
2023-03-24T13:58:51.027Z,16.76
2023-03-24T14:04:20.723Z,16.94
2023-03-24T14:09:32.942Z,16.94
2023-03-24T14:14:55.814Z,16.88
2023-03-24T14:20:05.106Z,16.84
2023-03-24T14:25:23.587Z,16.72
2023-03-24T14:30:37.956Z,16.50
2023-03-24T14:35:45.705Z,16.41
2023-03-24T14:40:56.632Z,16.37
2023-03-24T14:46:25.637Z,16.28
2023-03-24T14:51:58.844Z,16.10
2023-03-24T14:57:01.922Z,16.11
2023-03-24T15:02:28.189Z,16.26
2023-03-24T15:07:30.160Z,16.38
2023-03-24T15:12:32.611Z,16.36
2023-03-24T15:17:34.458Z,16.34
2023-03-24T15:22:42.865Z,16.27
2023-03-24T15:27:53.898Z,16.08
2023-03-24T15:32:55.790Z,15.95
2023-03-24T15:37:57.583Z,15.90
2023-03-24T15:43:02.272Z,15.77
2023-03-24T15:48:12.779Z,15.71
2023-03-24T15:53:14.456Z,15.56
2023-03-24T15:58:28.440Z,15.58
2023-03-24T16:03:32.273Z,15.42
2023-03-24T16:08:38.848Z,15.40
2023-03-24T16:13:45.576Z,15.36
2023-03-24T16:18:48.841Z,15.33
2023-03-24T16:23:52.646Z,15.18
2023-03-24T16:28:56.897Z,15.11
2023-03-24T16:33:59.300Z,15.08
2023-03-24T16:39:01.683Z,14.89
2023-03-24T16:44:03.784Z,14.85
2023-03-24T16:49:07.028Z,14.83
2023-03-24T16:54:09.188Z,14.73
2023-03-24T16:59:12.504Z,14.70
2023-03-24T17:04:16.590Z,14.61
2023-03-24T17:09:18.439Z,14.47
2023-03-24T17:14:20.425Z,14.38
2023-03-24T17:19:23.717Z,14.28
2023-03-24T17:24:26.511Z,14.12
2023-03-24T17:29:28.144Z,14.04
2023-03-24T17:34:29.919Z,14.04
2023-03-24T17:39:31.705Z,13.89
2023-03-24T17:44:33.821Z,13.83
2023-03-24T17:49:35.591Z,13.75
2023-03-24T17:54:37.310Z,13.77
2023-03-24T17:59:39.195Z,13.80
2023-03-24T18:04:41.004Z,13.72
2023-03-24T18:09:42.704Z,13.75
2023-03-24T18:14:45.504Z,13.74
2023-03-24T18:19:47.188Z,13.65
2023-03-24T18:24:48.929Z,13.65
2023-03-24T18:29:51.047Z,13.56
2023-03-24T18:34:53.156Z,13.59
2023-03-24T18:39:54.915Z,13.48
2023-03-24T18:44:56.657Z,13.49
2023-03-24T18:49:58.357Z,13.39
2023-03-24T18:55:02.422Z,13.41
2023-03-24T19:00:09.290Z,13.48
2023-03-24T19:05:12.739Z,13.43
2023-03-24T19:10:14.616Z,13.32
2023-03-24T19:15:18.334Z,13.25
2023-03-24T19:20:19.990Z,13.20
2023-03-24T19:25:22.832Z,13.27
2023-03-24T19:30:24.444Z,13.37
2023-03-24T19:35:26.177Z,13.32
2023-03-24T19:40:28.620Z,13.26
2023-03-24T19:45:30.604Z,13.13
2023-03-24T19:50:32.650Z,13.01
2023-03-24T19:55:35.996Z,12.94
2023-03-24T20:00:37.740Z,12.84
2023-03-24T20:05:39.469Z,12.81
2023-03-24T20:10:41.340Z,12.73
2023-03-24T20:15:46.120Z,12.64
2023-03-24T20:20:48.274Z,12.56
2023-03-24T20:25:50.481Z,12.49
2023-03-24T20:30:58.332Z,12.40
2023-03-24T20:36:00.171Z,12.33
2023-03-24T20:41:05.311Z,12.29
2023-03-24T20:46:09.227Z,12.19
2023-03-24T20:51:11.675Z,12.16
2023-03-24T20:56:15.392Z,12.09
2023-03-24T21:01:23.782Z,12.09
2023-03-24T21:06:25.677Z,12.05
2023-03-24T21:11:30.684Z,11.99
2023-03-24T21:16:33.977Z,11.95
2023-03-24T21:21:36.485Z,11.91
2023-03-24T21:26:38.179Z,11.84
2023-03-24T21:31:41.713Z,11.75
2023-03-24T21:36:43.628Z,11.68
2023-03-24T21:41:45.724Z,11.60
2023-03-24T21:46:48.062Z,11.54
2023-03-24T21:51:54.671Z,11.43
2023-03-24T21:56:56.510Z,11.45
2023-03-24T22:01:58.591Z,11.40
2023-03-24T22:07:06.349Z,11.33
2023-03-24T22:12:08.070Z,11.27
2023-03-24T22:17:09.791Z,11.26
2023-03-24T22:22:11.536Z,11.25
2023-03-24T22:27:13.195Z,11.26
2023-03-24T22:32:14.918Z,11.27
2023-03-24T22:37:17.194Z,11.26
2023-03-24T22:42:18.879Z,11.25
2023-03-24T22:47:20.779Z,11.23
2023-03-24T22:52:22.653Z,11.23
2023-03-24T22:57:24.318Z,11.17
2023-03-24T23:02:27.116Z,11.22
2023-03-24T23:07:29.567Z,11.20
2023-03-24T23:12:31.437Z,11.14
2023-03-24T23:17:34.647Z,11.05
2023-03-24T23:22:38.262Z,10.92
2023-03-24T23:27:40.724Z,10.94
2023-03-24T23:32:44.010Z,10.90
2023-03-24T23:37:46.453Z,10.84
2023-03-24T23:42:49.233Z,10.82
2023-03-24T23:47:52.228Z,10.81
2023-03-24T23:52:54.150Z,10.75
2023-03-24T23:57:55.890Z,10.75
